sensor_id;sensor_type;location;lat;lon;timestamp;P1;durP1;ratioP1;P2;durP2;ratioP2
72603;SDS011;60645;56.968;24.196;2023-09-30T04:19:11;22.63;;;15.70;;
72603;SDS011;60645;56.968;24.196;2023-09-30T04:21:40;22.77;;;16.50;;
72603;SDS011;60645;56.968;24.196;2023-09-30T04:24:07;20.23;;;16.27;;
72603;SDS011;60645;56.968;24.196;2023-09-30T04:26:35;23.30;;;17.60;;
72603;SDS011;60645;56.968;24.196;2023-09-30T04:29:03;19.92;;;15.60;;
72603;SDS011;60645;56.968;24.196;2023-09-30T04:31:31;20.63;;;15.38;;
72603;SDS011;60645;56.968;24.196;2023-09-30T04:33:58;23.08;;;15.07;;
72603;SDS011;60645;56.968;24.196;2023-09-30T04:36:25;18.40;;;15.60;;
72603;SDS011;60645;56.968;24.196;2023-09-30T04:38:52;18.77;;;14.25;;
72603;SDS011;60645;56.968;24.196;2023-09-30T04:41:19;17.42;;;14.27;;
72603;SDS011;60645;56.968;24.196;2023-09-30T04:43:48;19.27;;;15.77;;
72603;SDS011;60645;56.968;24.196;2023-09-30T04:46:16;17.83;;;13.73;;
72603;SDS011;60645;56.968;24.196;2023-09-30T04:48:46;17.58;;;13.18;;
72603;SDS011;60645;56.968;24.196;2023-09-30T04:51:15;17.85;;;13.85;;
72603;SDS011;60645;56.968;24.196;2023-09-30T04:53:45;17.60;;;13.98;;
72603;SDS011;60645;56.968;24.196;2023-09-30T04:56:13;19.15;;;14.45;;
72603;SDS011;60645;56.968;24.196;2023-09-30T04:58:40;17.52;;;13.73;;
72603;SDS011;60645;56.968;24.196;2023-09-30T05:01:07;16.67;;;13.95;;
72603;SDS011;60645;56.968;24.196;2023-09-30T05:03:35;17.20;;;14.07;;
72603;SDS011;60645;56.968;24.196;2023-09-30T05:06:02;17.92;;;14.55;;
72603;SDS011;60645;56.968;24.196;2023-09-30T05:08:29;17.17;;;13.55;;
72603;SDS011;60645;56.968;24.196;2023-09-30T05:10:57;16.73;;;13.77;;
72603;SDS011;60645;56.968;24.196;2023-09-30T05:13:24;15.60;;;12.85;;
72603;SDS011;60645;56.968;24.196;2023-09-30T05:15:51;19.50;;;13.77;;
72603;SDS011;60645;56.968;24.196;2023-09-30T05:18:19;15.73;;;13.10;;
72603;SDS011;60645;56.968;24.196;2023-09-30T05:20:46;15.35;;;12.23;;
72603;SDS011;60645;56.968;24.196;2023-09-30T05:23:13;15.70;;;12.85;;
72603;SDS011;60645;56.968;24.196;2023-09-30T05:25:41;16.65;;;13.50;;
72603;SDS011;60645;56.968;24.196;2023-09-30T05:28:09;14.90;;;13.27;;
72603;SDS011;60645;56.968;24.196;2023-09-30T05:30:38;15.25;;;12.70;;
72603;SDS011;60645;56.968;24.196;2023-09-30T05:33:05;17.65;;;13.43;;
72603;SDS011;60645;56.968;24.196;2023-09-30T05:35:33;15.93;;;13.20;;
72603;SDS011;60645;56.968;24.196;2023-09-30T05:38:00;16.38;;;12.70;;
72603;SDS011;60645;56.968;24.196;2023-09-30T05:40:27;15.93;;;12.60;;
72603;SDS011;60645;56.968;24.196;2023-09-30T05:42:57;17.80;;;13.10;;
72603;SDS011;60645;56.968;24.196;2023-09-30T05:45:31;17.13;;;13.68;;
72603;SDS011;60645;56.968;24.196;2023-09-30T05:48:02;16.88;;;14.70;;
72603;SDS011;60645;56.968;24.196;2023-09-30T05:50:32;17.52;;;13.23;;
72603;SDS011;60645;56.968;24.196;2023-09-30T05:53:03;17.90;;;13.60;;
72603;SDS011;60645;56.968;24.196;2023-09-30T05:55:33;16.02;;;12.35;;
72603;SDS011;60645;56.968;24.196;2023-09-30T05:58:00;16.33;;;13.48;;
72603;SDS011;60645;56.968;24.196;2023-09-30T06:00:27;16.70;;;12.77;;
72603;SDS011;60645;56.968;24.196;2023-09-30T06:02:57;16.05;;;13.85;;
72603;SDS011;60645;56.968;24.196;2023-09-30T06:05:25;15.25;;;12.68;;
72603;SDS011;60645;56.968;24.196;2023-09-30T06:07:53;15.20;;;12.35;;
72603;SDS011;60645;56.968;24.196;2023-09-30T06:10:21;18.08;;;13.23;;
72603;SDS011;60645;56.968;24.196;2023-09-30T06:12:50;16.83;;;14.13;;
72603;SDS011;60645;56.968;24.196;2023-09-30T06:15:24;19.90;;;15.13;;
72603;SDS011;60645;56.968;24.196;2023-09-30T06:17:55;18.60;;;15.57;;
72603;SDS011;60645;56.968;24.196;2023-09-30T06:20:24;17.75;;;14.57;;
72603;SDS011;60645;56.968;24.196;2023-09-30T06:22:53;19.52;;;15.60;;
72603;SDS011;60645;56.968;24.196;2023-09-30T06:25:20;19.80;;;15.45;;
72603;SDS011;60645;56.968;24.196;2023-09-30T06:27:50;19.35;;;15.38;;
72603;SDS011;60645;56.968;24.196;2023-09-30T06:30:18;20.10;;;15.80;;
72603;SDS011;60645;56.968;24.196;2023-09-30T06:33:52;19.48;;;15.60;;
72603;SDS011;60645;56.968;24.196;2023-09-30T06:36:22;18.45;;;14.90;;
72603;SDS011;60645;56.968;24.196;2023-09-30T06:38:50;17.67;;;14.65;;
72603;SDS011;60645;56.968;24.196;2023-09-30T06:41:18;19.30;;;15.77;;
72603;SDS011;60645;56.968;24.196;2023-09-30T06:43:46;17.40;;;14.10;;
72603;SDS011;60645;56.968;24.196;2023-09-30T06:46:13;18.98;;;14.50;;
72603;SDS011;60645;56.968;24.196;2023-09-30T06:48:40;14.87;;;12.07;;
72603;SDS011;60645;56.968;24.196;2023-09-30T06:51:07;14.52;;;11.98;;
72603;SDS011;60645;56.968;24.196;2023-09-30T06:53:40;17.58;;;12.93;;
72603;SDS011;60645;56.968;24.196;2023-09-30T06:56:07;14.88;;;11.73;;
72603;SDS011;60645;56.968;24.196;2023-09-30T06:58:34;15.50;;;12.32;;
72603;SDS011;60645;56.968;24.196;2023-09-30T07:01:01;17.55;;;12.35;;
72603;SDS011;60645;56.968;24.196;2023-09-30T07:03:28;15.63;;;12.18;;
72603;SDS011;60645;56.968;24.196;2023-09-30T07:05:56;14.45;;;12.43;;
72603;SDS011;60645;56.968;24.196;2023-09-30T07:08:27;14.65;;;11.48;;
72603;SDS011;60645;56.968;24.196;2023-09-30T07:10:56;14.07;;;11.98;;
72603;SDS011;60645;56.968;24.196;2023-09-30T07:13:23;15.05;;;12.90;;
72603;SDS011;60645;56.968;24.196;2023-09-30T07:15:50;16.17;;;12.05;;
72603;SDS011;60645;56.968;24.196;2023-09-30T07:18:17;15.20;;;11.40;;
72603;SDS011;60645;56.968;24.196;2023-09-30T07:20:44;14.27;;;11.90;;
72603;SDS011;60645;56.968;24.196;2023-09-30T07:23:11;14.10;;;11.05;;
72603;SDS011;60645;56.968;24.196;2023-09-30T07:25:46;12.98;;;10.68;;
72603;SDS011;60645;56.968;24.196;2023-09-30T07:28:14;14.18;;;10.90;;
72603;SDS011;60645;56.968;24.196;2023-09-30T07:30:41;12.98;;;10.15;;
72603;SDS011;60645;56.968;24.196;2023-09-30T07:33:08;13.70;;;11.45;;
72603;SDS011;60645;56.968;24.196;2023-09-30T07:35:35;13.63;;;10.23;;
72603;SDS011;60645;56.968;24.196;2023-09-30T07:38:05;13.38;;;10.80;;
72603;SDS011;60645;56.968;24.196;2023-09-30T07:40:32;13.23;;;10.43;;
72603;SDS011;60645;56.968;24.196;2023-09-30T07:42:59;14.00;;;10.40;;
72603;SDS011;60645;56.968;24.196;2023-09-30T07:45:26;14.60;;;10.98;;
72603;SDS011;60645;56.968;24.196;2023-09-30T07:47:54;12.73;;;10.23;;
72603;SDS011;60645;56.968;24.196;2023-09-30T07:50:22;11.97;;;8.60;;
72603;SDS011;60645;56.968;24.196;2023-09-30T07:52:49;11.75;;;8.85;;
72603;SDS011;60645;56.968;24.196;2023-09-30T07:55:16;9.80;;;8.00;;
72603;SDS011;60645;56.968;24.196;2023-09-30T07:57:43;12.13;;;9.57;;
72603;SDS011;60645;56.968;24.196;2023-09-30T08:00:10;10.83;;;8.87;;
72603;SDS011;60645;56.968;24.196;2023-09-30T08:02:42;11.85;;;9.07;;
72603;SDS011;60645;56.968;24.196;2023-09-30T08:05:12;12.10;;;9.30;;
72603;SDS011;60645;56.968;24.196;2023-09-30T08:07:39;12.77;;;8.80;;
72603;SDS011;60645;56.968;24.196;2023-09-30T08:10:07;11.20;;;7.90;;
72603;SDS011;60645;56.968;24.196;2023-09-30T08:12:40;9.80;;;8.27;;
72603;SDS011;60645;56.968;24.196;2023-09-30T08:15:08;9.32;;;7.35;;
72603;SDS011;60645;56.968;24.196;2023-09-30T08:17:38;11.25;;;8.00;;
72603;SDS011;60645;56.968;24.196;2023-09-30T08:20:06;9.43;;;7.60;;
72603;SDS011;60645;56.968;24.196;2023-09-30T08:22:37;12.05;;;8.80;;
72603;SDS011;60645;56.968;24.196;2023-09-30T08:25:05;12.23;;;9.70;;
72603;SDS011;60645;56.968;24.196;2023-09-30T08:27:32;10.90;;;9.07;;
72603;SDS011;60645;56.968;24.196;2023-09-30T08:29:59;12.55;;;10.65;;
72603;SDS011;60645;56.968;24.196;2023-09-30T08:32:34;11.43;;;9.00;;
72603;SDS011;60645;56.968;24.196;2023-09-30T08:35:02;13.47;;;10.93;;
72603;SDS011;60645;56.968;24.196;2023-09-30T08:37:30;14.00;;;11.15;;
72603;SDS011;60645;56.968;24.196;2023-09-30T08:39:58;13.73;;;11.38;;
72603;SDS011;60645;56.968;24.196;2023-09-30T08:42:25;13.85;;;10.93;;
72603;SDS011;60645;56.968;24.196;2023-09-30T08:44:59;13.40;;;10.70;;
72603;SDS011;60645;56.968;24.196;2023-09-30T08:47:26;12.18;;;10.77;;
72603;SDS011;60645;56.968;24.196;2023-09-30T08:49:58;12.52;;;10.82;;
72603;SDS011;60645;56.968;24.196;2023-09-30T08:52:32;14.43;;;11.50;;
72603;SDS011;60645;56.968;24.196;2023-09-30T08:55:06;13.80;;;12.32;;
72603;SDS011;60645;56.968;24.196;2023-09-30T08:57:42;13.88;;;11.43;;
72603;SDS011;60645;56.968;24.196;2023-09-30T09:00:10;16.25;;;12.77;;
72603;SDS011;60645;56.968;24.196;2023-09-30T09:02:40;17.75;;;13.75;;
72603;SDS011;60645;56.968;24.196;2023-09-30T09:05:08;19.27;;;14.60;;
72603;SDS011;60645;56.968;24.196;2023-09-30T09:07:36;19.20;;;16.10;;
72603;SDS011;60645;56.968;24.196;2023-09-30T09:10:06;19.55;;;15.73;;
72603;SDS011;60645;56.968;24.196;2023-09-30T09:12:36;22.85;;;18.33;;
72603;SDS011;60645;56.968;24.196;2023-09-30T09:15:05;21.77;;;17.35;;
72603;SDS011;60645;56.968;24.196;2023-09-30T09:17:43;22.80;;;17.17;;
72603;SDS011;60645;56.968;24.196;2023-09-30T09:20:12;15.35;;;13.07;;
72603;SDS011;60645;56.968;24.196;2023-09-30T09:22:47;17.38;;;13.10;;
72603;SDS011;60645;56.968;24.196;2023-09-30T09:25:20;15.07;;;11.90;;
72603;SDS011;60645;56.968;24.196;2023-09-30T09:27:50;13.73;;;11.98;;
72603;SDS011;60645;56.968;24.196;2023-09-30T09:30:19;13.25;;;10.88;;
72603;SDS011;60645;56.968;24.196;2023-09-30T09:33:06;13.68;;;11.23;;
72603;SDS011;60645;56.968;24.196;2023-09-30T09:35:34;12.93;;;10.30;;
72603;SDS011;60645;56.968;24.196;2023-09-30T09:38:06;13.75;;;10.48;;
72603;SDS011;60645;56.968;24.196;2023-09-30T09:40:34;14.23;;;11.43;;
72603;SDS011;60645;56.968;24.196;2023-09-30T09:43:03;11.05;;;8.38;;
72603;SDS011;60645;56.968;24.196;2023-09-30T09:45:33;10.38;;;7.38;;
72603;SDS011;60645;56.968;24.196;2023-09-30T09:48:01;11.15;;;9.05;;
72603;SDS011;60645;56.968;24.196;2023-09-30T09:50:31;9.40;;;7.22;;
72603;SDS011;60645;56.968;24.196;2023-09-30T09:52:58;9.43;;;8.27;;
72603;SDS011;60645;56.968;24.196;2023-09-30T09:55:27;8.88;;;5.45;;
72603;SDS011;60645;56.968;24.196;2023-09-30T09:57:54;7.88;;;6.18;;
72603;SDS011;60645;56.968;24.196;2023-09-30T10:00:23;6.95;;;4.72;;
72603;SDS011;60645;56.968;24.196;2023-09-30T10:02:51;6.07;;;4.75;;
72603;SDS011;60645;56.968;24.196;2023-09-30T10:05:19;6.80;;;4.32;;
72603;SDS011;60645;56.968;24.196;2023-09-30T10:08:06;5.73;;;4.40;;
72603;SDS011;60645;56.968;24.196;2023-09-30T10:10:37;6.70;;;3.70;;
72603;SDS011;60645;56.968;24.196;2023-09-30T10:13:05;6.43;;;4.07;;
72603;SDS011;60645;56.968;24.196;2023-09-30T10:18:04;5.10;;;3.23;;
72603;SDS011;60645;56.968;24.196;2023-09-30T10:20:39;8.67;;;3.37;;
72603;SDS011;60645;56.968;24.196;2023-09-30T10:25:44;6.75;;;2.40;;
72603;SDS011;60645;56.968;24.196;2023-09-30T10:31:14;7.40;;;2.40;;
72603;SDS011;60645;56.968;24.196;2023-09-30T10:36:34;6.55;;;2.45;;
72603;SDS011;60645;56.968;24.196;2023-09-30T10:39:04;6.73;;;2.70;;
72603;SDS011;60645;56.968;24.196;2023-09-30T10:46:59;7.53;;;2.95;;
72603;SDS011;60645;56.968;24.196;2023-09-30T10:49:47;5.50;;;2.35;;
72603;SDS011;60645;56.968;24.196;2023-09-30T10:52:21;5.22;;;2.38;;
72603;SDS011;60645;56.968;24.196;2023-09-30T10:54:51;5.53;;;2.70;;
72603;SDS011;60645;56.968;24.196;2023-09-30T10:57:28;4.77;;;1.80;;
72603;SDS011;60645;56.968;24.196;2023-09-30T11:00:08;7.35;;;2.70;;
72603;SDS011;60645;56.968;24.196;2023-09-30T11:02:49;5.05;;;2.20;;
72603;SDS011;60645;56.968;24.196;2023-09-30T11:05:18;4.85;;;1.98;;
72603;SDS011;60645;56.968;24.196;2023-09-30T11:08:01;7.32;;;2.85;;
72603;SDS011;60645;56.968;24.196;2023-09-30T11:10:30;6.07;;;2.00;;
72603;SDS011;60645;56.968;24.196;2023-09-30T11:12:58;6.47;;;2.72;;
72603;SDS011;60645;56.968;24.196;2023-09-30T11:15:25;6.57;;;2.60;;
72603;SDS011;60645;56.968;24.196;2023-09-30T11:18:02;6.32;;;2.55;;
72603;SDS011;60645;56.968;24.196;2023-09-30T11:20:43;5.17;;;2.33;;
72603;SDS011;60645;56.968;24.196;2023-09-30T11:23:11;4.65;;;1.98;;
72603;SDS011;60645;56.968;24.196;2023-09-30T11:25:38;5.53;;;2.20;;
72603;SDS011;60645;56.968;24.196;2023-09-30T11:28:15;5.68;;;1.85;;
72603;SDS011;60645;56.968;24.196;2023-09-30T11:30:55;6.00;;;1.90;;
72603;SDS011;60645;56.968;24.196;2023-09-30T11:33:23;6.68;;;2.35;;
72603;SDS011;60645;56.968;24.196;2023-09-30T11:35:58;5.88;;;1.75;;
72603;SDS011;60645;56.968;24.196;2023-09-30T11:38:32;6.17;;;1.77;;
72603;SDS011;60645;56.968;24.196;2023-09-30T11:41:04;4.47;;;1.67;;
72603;SDS011;60645;56.968;24.196;2023-09-30T11:43:33;6.38;;;1.85;;
72603;SDS011;60645;56.968;24.196;2023-09-30T11:46:19;6.38;;;1.77;;
72603;SDS011;60645;56.968;24.196;2023-09-30T11:48:56;5.47;;;2.30;;
72603;SDS011;60645;56.968;24.196;2023-09-30T11:51:28;6.67;;;1.87;;
72603;SDS011;60645;56.968;24.196;2023-09-30T11:53:55;8.75;;;4.30;;
72603;SDS011;60645;56.968;24.196;2023-09-30T11:56:24;5.40;;;2.42;;
72603;SDS011;60645;56.968;24.196;2023-09-30T11:58:56;5.55;;;2.80;;
72603;SDS011;60645;56.968;24.196;2023-09-30T12:01:24;5.97;;;2.30;;
72603;SDS011;60645;56.968;24.196;2023-09-30T12:03:52;4.60;;;1.98;;
72603;SDS011;60645;56.968;24.196;2023-09-30T12:06:24;6.40;;;2.90;;
72603;SDS011;60645;56.968;24.196;2023-09-30T12:08:51;15.40;;;12.45;;
72603;SDS011;60645;56.968;24.196;2023-09-30T12:13:46;6.80;;;3.83;;
72603;SDS011;60645;56.968;24.196;2023-09-30T12:16:17;6.75;;;2.25;;
72603;SDS011;60645;56.968;24.196;2023-09-30T12:18:44;4.40;;;1.77;;
72603;SDS011;60645;56.968;24.196;2023-09-30T12:21:12;5.60;;;2.05;;
72603;SDS011;60645;56.968;24.196;2023-09-30T12:23:40;6.32;;;2.15;;
72603;SDS011;60645;56.968;24.196;2023-09-30T12:26:09;6.90;;;2.20;;
72603;SDS011;60645;56.968;24.196;2023-09-30T12:28:41;5.30;;;1.85;;
72603;SDS011;60645;56.968;24.196;2023-09-30T12:31:09;7.10;;;3.37;;
72603;SDS011;60645;56.968;24.196;2023-09-30T12:33:38;7.22;;;2.70;;
72603;SDS011;60645;56.968;24.196;2023-09-30T12:36:05;6.65;;;2.55;;
72603;SDS011;60645;56.968;24.196;2023-09-30T12:38:32;4.30;;;1.75;;
72603;SDS011;60645;56.968;24.196;2023-09-30T12:41:00;7.05;;;2.63;;
72603;SDS011;60645;56.968;24.196;2023-09-30T12:43:27;8.68;;;4.35;;
72603;SDS011;60645;56.968;24.196;2023-09-30T12:45:54;7.68;;;3.72;;
72603;SDS011;60645;56.968;24.196;2023-09-30T12:48:23;8.00;;;3.70;;
72603;SDS011;60645;56.968;24.196;2023-09-30T12:50:50;6.23;;;2.00;;
72603;SDS011;60645;56.968;24.196;2023-09-30T12:53:17;6.85;;;2.40;;
72603;SDS011;60645;56.968;24.196;2023-09-30T12:55:44;5.82;;;2.55;;
72603;SDS011;60645;56.968;24.196;2023-09-30T12:58:11;6.50;;;2.40;;
72603;SDS011;60645;56.968;24.196;2023-09-30T13:00:39;6.20;;;1.85;;
72603;SDS011;60645;56.968;24.196;2023-09-30T13:03:06;5.93;;;1.90;;
72603;SDS011;60645;56.968;24.196;2023-09-30T13:05:34;6.72;;;2.10;;
72603;SDS011;60645;56.968;24.196;2023-09-30T13:08:01;6.18;;;1.88;;
72603;SDS011;60645;56.968;24.196;2023-09-30T13:10:29;6.35;;;2.25;;
72603;SDS011;60645;56.968;24.196;2023-09-30T13:12:57;6.57;;;1.77;;
72603;SDS011;60645;56.968;24.196;2023-09-30T13:15:24;5.40;;;1.73;;
72603;SDS011;60645;56.968;24.196;2023-09-30T13:17:52;7.93;;;2.63;;
72603;SDS011;60645;56.968;24.196;2023-09-30T13:20:20;16.77;;;10.93;;
72603;SDS011;60645;56.968;24.196;2023-09-30T13:22:47;5.32;;;1.77;;
72603;SDS011;60645;56.968;24.196;2023-09-30T13:25:15;7.07;;;2.58;;
72603;SDS011;60645;56.968;24.196;2023-09-30T13:27:42;6.00;;;1.63;;
72603;SDS011;60645;56.968;24.196;2023-09-30T13:30:10;7.30;;;2.08;;
72603;SDS011;60645;56.968;24.196;2023-09-30T13:32:37;6.18;;;2.10;;
72603;SDS011;60645;56.968;24.196;2023-09-30T13:35:07;7.25;;;2.20;;
72603;SDS011;60645;56.968;24.196;2023-09-30T13:37:34;5.28;;;1.95;;
72603;SDS011;60645;56.968;24.196;2023-09-30T13:40:01;7.90;;;1.90;;
72603;SDS011;60645;56.968;24.196;2023-09-30T13:42:30;7.07;;;1.80;;
72603;SDS011;60645;56.968;24.196;2023-09-30T13:44:58;6.83;;;2.23;;
72603;SDS011;60645;56.968;24.196;2023-09-30T13:47:25;6.50;;;2.10;;
72603;SDS011;60645;56.968;24.196;2023-09-30T13:49:52;10.07;;;3.58;;
72603;SDS011;60645;56.968;24.196;2023-09-30T18:05:31;7.88;;;1.80;;
72603;SDS011;60645;56.968;24.196;2023-09-30T18:07:58;11.43;;;2.42;;
72603;SDS011;60645;56.968;24.196;2023-09-30T18:10:25;11.32;;;4.45;;
72603;SDS011;60645;56.968;24.196;2023-09-30T18:12:52;9.88;;;2.85;;
72603;SDS011;60645;56.968;24.196;2023-09-30T18:15:20;9.10;;;2.65;;
72603;SDS011;60645;56.968;24.196;2023-09-30T18:17:47;14.95;;;5.65;;
72603;SDS011;60645;56.968;24.196;2023-09-30T18:20:34;9.98;;;3.22;;
72603;SDS011;60645;56.968;24.196;2023-09-30T18:23:01;10.57;;;2.42;;
72603;SDS011;60645;56.968;24.196;2023-09-30T18:25:29;11.77;;;2.30;;
72603;SDS011;60645;56.968;24.196;2023-09-30T18:28:00;9.30;;;2.13;;
72603;SDS011;60645;56.968;24.196;2023-09-30T18:30:29;10.10;;;2.15;;
72603;SDS011;60645;56.968;24.196;2023-09-30T18:32:56;10.60;;;2.47;;
72603;SDS011;60645;56.968;24.196;2023-09-30T18:35:24;9.23;;;2.50;;
72603;SDS011;60645;56.968;24.196;2023-09-30T18:37:51;10.25;;;2.95;;
72603;SDS011;60645;56.968;24.196;2023-09-30T18:40:18;8.55;;;2.20;;
72603;SDS011;60645;56.968;24.196;2023-09-30T18:42:48;8.13;;;1.77;;
72603;SDS011;60645;56.968;24.196;2023-09-30T18:45:16;10.13;;;2.38;;
72603;SDS011;60645;56.968;24.196;2023-09-30T18:47:42;9.37;;;2.20;;
